createdAt,value
2019-04-06T00:00:08.013Z,28.40
2019-04-06T00:01:08.073Z,26.10
2019-04-06T00:02:08.122Z,26.70
2019-04-06T00:03:08.180Z,25.60
2019-04-06T00:04:08.228Z,28.70
2019-04-06T00:05:08.282Z,31.70
2019-04-06T00:06:08.339Z,25.70
2019-04-06T00:07:08.391Z,24.80
2019-04-06T00:08:08.446Z,27.20
2019-04-06T00:09:08.510Z,26.60
2019-04-06T00:10:08.553Z,29.00
2019-04-06T00:11:08.609Z,28.20
2019-04-06T00:12:08.662Z,23.60
2019-04-06T00:13:08.716Z,27.00
2019-04-06T00:14:08.770Z,26.90
2019-04-06T00:15:08.826Z,25.60
2019-04-06T00:16:08.878Z,28.40
2019-04-06T00:17:08.934Z,26.30
2019-04-06T00:18:08.989Z,27.80
2019-04-06T00:19:09.041Z,24.80
2019-04-06T00:20:09.152Z,29.50
2019-04-06T00:21:09.148Z,30.10
2019-04-06T00:22:09.202Z,29.90
2019-04-06T00:23:09.258Z,24.90
2019-04-06T00:24:09.311Z,26.90
2019-04-06T00:25:09.365Z,29.80
2019-04-06T00:26:09.420Z,26.60
2019-04-06T00:27:09.474Z,29.80
2019-04-06T00:28:09.528Z,29.50
2019-04-06T00:29:09.582Z,23.70
2019-04-06T00:30:09.640Z,25.70
2019-04-06T00:31:09.691Z,25.80
2019-04-06T00:32:09.749Z,25.70
2019-04-06T00:33:09.808Z,27.00
2019-04-06T00:34:09.857Z,23.10
2019-04-06T00:35:09.908Z,25.90
2019-04-06T00:36:10.000Z,26.00
2019-04-06T00:37:10.015Z,26.00
2019-04-06T00:38:10.072Z,28.20
2019-04-06T00:39:10.171Z,26.50
2019-04-06T00:40:10.178Z,27.80
2019-04-06T00:41:10.232Z,25.70
2019-04-06T00:42:10.326Z,25.40
2019-04-06T00:43:10.341Z,24.10
2019-04-06T00:44:10.397Z,26.60
2019-04-06T00:45:10.449Z,24.80
2019-04-06T00:46:10.553Z,29.30
2019-04-06T00:47:10.559Z,23.70
2019-04-06T00:48:10.612Z,25.50
2019-04-06T00:49:10.667Z,24.80
2019-04-06T00:50:10.721Z,25.40
2019-04-06T00:51:10.775Z,24.00
2019-04-06T00:52:10.828Z,26.00
2019-04-06T00:53:10.883Z,26.50
2019-04-06T00:54:10.938Z,26.50
2019-04-06T00:55:10.992Z,30.80
2019-04-06T00:56:11.051Z,27.30
2019-04-06T00:57:11.103Z,26.50
2019-04-06T00:58:11.155Z,27.20
2019-04-06T00:59:11.211Z,28.00
2019-04-06T01:00:11.263Z,28.50
2019-04-06T01:01:11.316Z,26.20
2019-04-06T01:02:11.374Z,26.70
2019-04-06T01:03:11.425Z,26.10
2019-04-06T01:04:11.479Z,27.40
2019-04-06T01:05:11.534Z,25.90
2019-04-06T01:06:11.597Z,27.20
2019-04-06T01:07:11.648Z,24.60
2019-04-06T01:08:11.695Z,28.20
2019-04-06T01:09:11.755Z,29.10
2019-04-06T01:10:11.803Z,23.30
2019-04-06T01:11:11.859Z,29.60
2019-04-06T01:12:11.914Z,28.60
2019-04-06T01:13:12.033Z,29.20
2019-04-06T01:14:12.021Z,29.30
2019-04-06T01:15:12.074Z,26.50
2019-04-06T01:16:12.129Z,25.10
2019-04-06T01:17:12.183Z,25.40
2019-04-06T01:18:12.236Z,25.70
2019-04-06T01:19:12.293Z,24.50
2019-04-06T01:20:12.344Z,27.60
2019-04-06T01:21:12.400Z,23.20
2019-04-06T01:22:12.453Z,22.80
2019-04-06T01:23:12.508Z,31.10
2019-04-06T01:24:12.616Z,22.50
2019-04-06T01:25:12.617Z,24.20
2019-04-06T01:26:12.670Z,24.50
2019-04-06T01:27:12.726Z,23.70
2019-04-06T01:28:12.778Z,27.30
2019-04-06T01:29:12.832Z,24.60
2019-04-06T01:30:12.957Z,24.70
2019-04-06T01:31:12.945Z,25.70
2019-04-06T01:32:12.996Z,25.20
2019-04-06T01:33:13.050Z,22.60
2019-04-06T01:34:13.104Z,24.40
2019-04-06T01:35:13.158Z,24.90
2019-04-06T01:36:13.212Z,25.40
2019-04-06T01:37:13.267Z,23.20
2019-04-06T01:38:13.321Z,26.00
2019-04-06T01:39:13.376Z,25.10
2019-04-06T01:40:13.459Z,24.30
2019-04-06T01:41:13.485Z,25.20
2019-04-06T01:42:13.538Z,25.60
2019-04-06T01:43:13.628Z,26.20
2019-04-06T01:44:13.645Z,23.70
2019-04-06T01:45:13.701Z,23.90
2019-04-06T01:46:13.754Z,21.50
2019-04-06T01:47:13.808Z,27.90
2019-04-06T01:48:13.864Z,22.10
2019-04-06T01:49:13.992Z,24.30
2019-04-06T01:50:13.969Z,21.20
2019-04-06T01:51:14.051Z,25.30
2019-04-06T01:52:14.082Z,24.30
2019-04-06T01:53:14.131Z,22.50
2019-04-06T01:54:14.277Z,24.40
2019-04-06T01:55:14.342Z,23.80
2019-04-06T01:56:18.629Z,24.90
2019-04-06T01:57:14.348Z,28.10
2019-04-06T01:58:14.711Z,24.20
2019-04-06T01:59:14.461Z,26.40
2019-04-06T02:00:14.510Z,24.90
2019-04-06T02:01:14.564Z,21.20
2019-04-06T02:02:14.617Z,31.60
2019-04-06T02:03:14.815Z,25.10
2019-04-06T02:04:14.726Z,21.80
2019-04-06T02:05:14.779Z,24.00
2019-04-06T02:06:14.833Z,23.90
2019-04-06T02:07:14.915Z,21.10
2019-04-06T02:08:14.939Z,22.90
2019-04-06T02:09:14.996Z,24.90
2019-04-06T02:10:15.049Z,21.30
2019-04-06T02:11:15.107Z,27.20
2019-04-06T02:12:15.155Z,25.60
2019-04-06T02:13:15.209Z,23.10
2019-04-06T02:14:15.264Z,23.70
2019-04-06T02:15:15.319Z,23.90
2019-04-06T02:16:15.477Z,25.90
2019-04-06T02:17:15.426Z,23.80
2019-04-06T02:18:15.481Z,26.00
2019-04-06T02:19:15.535Z,24.40
2019-04-06T02:20:15.589Z,23.70
2019-04-06T02:21:15.641Z,28.60
2019-04-06T02:22:15.696Z,26.20
2019-04-06T02:23:15.750Z,24.70
2019-04-06T02:24:15.803Z,23.50
2019-04-06T02:25:15.858Z,26.50
2019-04-06T02:26:15.914Z,23.20
2019-04-06T02:27:15.967Z,31.50
2019-04-06T02:28:16.019Z,22.90
2019-04-06T02:29:16.076Z,22.10
2019-04-06T02:30:16.129Z,26.90
2019-04-06T02:31:16.185Z,25.50
2019-04-06T02:32:16.302Z,28.10
2019-04-06T02:33:16.293Z,29.30
2019-04-06T02:34:16.349Z,26.50
2019-04-06T02:35:16.399Z,29.80
2019-04-06T02:36:16.526Z,24.00
2019-04-06T02:37:16.509Z,22.80
2019-04-06T02:38:16.587Z,22.80
2019-04-06T02:39:16.618Z,27.40
2019-04-06T02:40:16.708Z,22.50
2019-04-06T02:41:16.727Z,23.10
2019-04-06T02:42:16.783Z,22.00
2019-04-06T02:43:16.835Z,24.70
2019-04-06T02:44:16.898Z,30.60
2019-04-06T02:45:17.008Z,27.20
2019-04-06T02:46:16.995Z,27.50
2019-04-06T02:47:17.056Z,26.40
2019-04-06T02:48:17.123Z,25.60
2019-04-06T02:49:17.160Z,31.50
2019-04-06T02:50:17.229Z,24.90
2019-04-06T02:51:17.360Z,27.00
2019-04-06T02:52:17.325Z,26.80
2019-04-06T02:53:17.392Z,26.70
2019-04-06T02:54:17.513Z,25.40
2019-04-06T02:55:17.486Z,25.10
2019-04-06T02:56:17.540Z,26.10
2019-04-06T02:57:17.593Z,24.10
2019-04-06T02:58:17.654Z,24.20
2019-04-06T02:59:17.897Z,22.90
2019-04-06T03:00:17.756Z,27.50
2019-04-06T03:01:17.810Z,29.10
2019-04-06T03:02:17.865Z,26.20
2019-04-06T03:03:18.017Z,24.40
2019-04-06T03:04:17.975Z,32.20
2019-04-06T03:05:18.034Z,26.40
2019-04-06T03:06:18.271Z,25.00
2019-04-06T03:07:18.135Z,25.50
2019-04-06T03:08:18.382Z,23.20
2019-04-06T03:09:18.243Z,24.30
2019-04-06T03:10:18.319Z,21.70
2019-04-06T03:11:18.359Z,24.50
2019-04-06T03:12:18.405Z,24.60
2019-04-06T03:13:18.465Z,26.50
2019-04-06T03:14:18.515Z,23.50
2019-04-06T03:15:18.569Z,29.30
2019-04-06T03:16:18.634Z,24.60
2019-04-06T03:17:18.680Z,26.00
2019-04-06T03:18:18.730Z,25.50
2019-04-06T03:19:18.798Z,28.30
2019-04-06T03:20:18.839Z,24.30
2019-04-06T03:21:18.894Z,23.90
2019-04-06T03:22:18.947Z,24.70
2019-04-06T03:23:19.003Z,25.60
2019-04-06T03:24:19.055Z,28.50
2019-04-06T03:25:19.207Z,26.20
2019-04-06T03:26:19.165Z,24.90
2019-04-06T03:27:19.219Z,25.10
2019-04-06T03:28:19.272Z,21.40
2019-04-06T03:29:19.331Z,27.90
2019-04-06T03:30:19.380Z,24.60
2019-04-06T03:31:23.648Z,25.50
2019-04-06T03:32:19.489Z,25.00
2019-04-06T03:33:19.545Z,25.60
2019-04-06T03:34:21.525Z,24.00
2019-04-06T03:35:19.658Z,19.80
2019-04-06T03:36:19.869Z,24.60
2019-04-06T03:37:19.769Z,24.80
2019-04-06T03:38:19.813Z,22.00
2019-04-06T03:39:19.867Z,25.10
2019-04-06T03:40:19.946Z,26.80
2019-04-06T03:41:19.976Z,25.60
2019-04-06T03:42:20.131Z,25.50
2019-04-06T03:43:20.082Z,25.70
2019-04-06T03:44:20.137Z,23.60
2019-04-06T03:45:20.192Z,23.40
2019-04-06T03:46:20.353Z,27.00
2019-04-06T03:47:20.301Z,24.30
2019-04-06T03:48:20.352Z,27.00
2019-04-06T03:49:20.408Z,28.30
2019-04-06T03:50:20.465Z,27.10
2019-04-06T03:51:20.517Z,23.80
2019-04-06T03:52:20.571Z,26.00
2019-04-06T03:53:20.624Z,24.50
2019-04-06T03:54:20.768Z,22.80
2019-04-06T03:55:20.735Z,26.40
2019-04-06T03:56:21.065Z,24.40
2019-04-06T03:57:20.841Z,24.00
2019-04-06T03:58:20.896Z,22.50
2019-04-06T03:59:20.948Z,23.30
2019-04-06T04:00:21.043Z,22.10
2019-04-06T04:01:21.060Z,26.00
2019-04-06T04:02:21.110Z,22.10
2019-04-06T04:03:21.163Z,22.40
2019-04-06T04:04:21.217Z,27.30
2019-04-06T04:05:21.275Z,24.10
2019-04-06T04:06:21.407Z,25.30
2019-04-06T04:07:21.387Z,26.20
2019-04-06T04:08:21.435Z,21.70
2019-04-06T04:09:21.490Z,25.30
2019-04-06T04:10:21.542Z,22.70
2019-04-06T04:11:21.598Z,25.60
2019-04-06T04:12:21.650Z,23.60
2019-04-06T04:13:21.706Z,21.80
2019-04-06T04:14:21.887Z,21.50
2019-04-06T04:15:21.813Z,22.00
2019-04-06T04:16:21.888Z,24.90
2019-04-06T04:17:21.924Z,25.30
2019-04-06T04:18:21.976Z,22.70
2019-04-06T04:19:22.036Z,22.10
2019-04-06T04:20:22.081Z,24.70
2019-04-06T04:21:22.135Z,25.90
2019-04-06T04:22:22.190Z,24.80
2019-04-06T04:23:22.252Z,23.60
2019-04-06T04:24:22.302Z,23.00
2019-04-06T04:25:22.524Z,23.70
2019-04-06T04:26:22.406Z,22.30
2019-04-06T04:27:29.619Z,29.40
2019-04-06T04:28:22.516Z,24.20
2019-04-06T04:29:22.567Z,20.30
2019-04-06T04:30:32.471Z,22.00
2019-04-06T04:31:22.674Z,20.50
2019-04-06T04:32:22.729Z,27.00
2019-04-06T04:33:22.953Z,24.20
2019-04-06T04:34:22.836Z,21.90
2019-04-06T04:35:22.890Z,22.60
2019-04-06T04:36:22.944Z,22.40
2019-04-06T04:37:23.098Z,22.70
2019-04-06T04:38:23.144Z,20.90
2019-04-06T04:39:23.200Z,21.70
2019-04-06T04:40:23.158Z,21.80
2019-04-06T04:41:23.214Z,24.80
2019-04-06T04:42:23.268Z,21.30
2019-04-06T04:43:23.322Z,27.20
2019-04-06T04:44:23.374Z,26.50
2019-04-06T04:45:23.621Z,23.20
2019-04-06T04:46:23.484Z,23.30
2019-04-06T04:47:23.703Z,24.00
2019-04-06T04:48:23.588Z,26.00
2019-04-06T04:49:23.672Z,25.40
2019-04-06T04:50:23.698Z,23.60
2019-04-06T04:51:23.750Z,23.60
2019-04-06T04:52:23.803Z,25.50
2019-04-06T04:53:23.991Z,21.40
2019-04-06T04:54:23.912Z,23.90
2019-04-06T04:55:23.965Z,20.70
2019-04-06T04:56:24.018Z,21.60
2019-04-06T04:57:24.072Z,22.80
2019-04-06T04:58:24.126Z,24.40
2019-04-06T04:59:24.226Z,24.40
2019-04-06T05:00:24.249Z,23.30
2019-04-06T05:01:24.291Z,23.20
2019-04-06T05:02:24.340Z,23.20
2019-04-06T05:03:24.551Z,24.00
2019-04-06T05:04:24.447Z,22.10
2019-04-06T05:05:24.500Z,21.50
2019-04-06T05:06:24.599Z,20.70
2019-04-06T05:07:24.615Z,22.50
2019-04-06T05:08:24.662Z,24.00
2019-04-06T05:09:24.715Z,24.60
2019-04-06T05:10:24.767Z,26.30
2019-04-06T05:11:24.839Z,23.90
2019-04-06T05:12:24.875Z,22.20
2019-04-06T05:13:24.969Z,26.40
2019-04-06T05:14:24.983Z,24.40
2019-04-06T05:15:25.041Z,21.20
2019-04-06T05:16:25.088Z,26.30
2019-04-06T05:17:25.296Z,25.50
2019-04-06T05:18:25.197Z,22.60
2019-04-06T05:19:25.251Z,24.00
2019-04-06T05:20:25.307Z,21.60
2019-04-06T05:21:25.359Z,21.10
2019-04-06T05:22:25.411Z,25.10
2019-04-06T05:23:25.467Z,27.30
2019-04-06T05:24:25.520Z,24.80
2019-04-06T05:25:25.573Z,27.40
2019-04-06T05:26:36.595Z,21.80
2019-04-06T05:27:26.005Z,26.00
2019-04-06T05:28:25.733Z,23.30
2019-04-06T05:29:25.792Z,23.40
2019-04-06T05:30:25.841Z,24.60
2019-04-06T05:31:25.938Z,23.90
2019-04-06T05:32:25.949Z,22.80
2019-04-06T05:33:26.004Z,25.20
2019-04-06T05:34:26.057Z,26.70
2019-04-06T05:35:26.630Z,22.90
2019-04-06T05:36:26.163Z,25.60
2019-04-06T05:37:26.219Z,26.20
2019-04-06T05:38:26.291Z,25.60
2019-04-06T05:39:26.329Z,28.80
2019-04-06T05:40:26.379Z,26.20
2019-04-06T05:41:26.439Z,25.20
2019-04-06T05:42:26.488Z,23.10
2019-04-06T05:43:26.577Z,24.40
2019-04-06T05:44:26.602Z,22.80
2019-04-06T05:45:26.649Z,25.80
2019-04-06T05:46:26.703Z,27.50
2019-04-06T05:47:26.757Z,26.50
2019-04-06T05:48:26.813Z,22.70
2019-04-06T05:49:26.901Z,22.70
2019-04-06T05:50:27.293Z,24.90
2019-04-06T05:51:26.974Z,22.80
2019-04-06T05:52:27.135Z,23.60
2019-04-06T05:53:27.089Z,23.70
2019-04-06T05:54:27.134Z,22.80
2019-04-06T05:55:27.191Z,24.50
2019-04-06T05:56:27.364Z,25.40
2019-04-06T05:57:27.297Z,27.30
2019-04-06T05:58:27.350Z,30.50
2019-04-06T05:59:27.441Z,25.50
2019-04-06T06:00:27.458Z,26.30
2019-04-06T06:01:27.516Z,21.10
2019-04-06T06:02:27.566Z,27.20
2019-04-06T06:03:27.619Z,24.80
2019-04-06T06:04:27.673Z,23.30
2019-04-06T06:05:27.727Z,24.70
2019-04-06T06:06:27.782Z,26.60
2019-04-06T06:07:27.836Z,27.60
2019-04-06T06:08:27.890Z,23.40
2019-04-06T06:09:27.942Z,28.70
2019-04-06T06:10:27.996Z,27.10
2019-04-06T06:11:28.051Z,24.10
2019-04-06T06:12:28.104Z,26.80
2019-04-06T06:13:28.158Z,24.60
2019-04-06T06:14:28.222Z,27.70
2019-04-06T06:15:28.268Z,24.70
2019-04-06T06:16:28.321Z,23.60
2019-04-06T06:17:28.375Z,21.80
2019-04-06T06:18:28.458Z,24.00
2019-04-06T06:19:28.516Z,26.30
2019-04-06T06:20:28.536Z,24.70
2019-04-06T06:21:28.717Z,25.50
2019-04-06T06:22:28.645Z,25.40
2019-04-06T06:23:28.923Z,24.40
2019-04-06T06:24:28.753Z,21.50
2019-04-06T06:25:28.807Z,25.60
2019-04-06T06:26:28.975Z,22.30
2019-04-06T06:27:28.914Z,25.10
2019-04-06T06:28:28.969Z,23.80
2019-04-06T06:29:29.031Z,26.10
2019-04-06T06:30:29.076Z,27.70
2019-04-06T06:31:29.134Z,27.00
2019-04-06T06:32:31.097Z,25.20
2019-04-06T06:33:29.240Z,24.80
2019-04-06T06:34:29.297Z,25.70
2019-04-06T06:35:29.348Z,25.20
2019-04-06T06:36:29.401Z,27.00
2019-04-06T06:37:29.463Z,25.70
2019-04-06T06:38:29.514Z,24.50
2019-04-06T06:39:29.564Z,24.30
2019-04-06T06:40:29.622Z,23.50
2019-04-06T06:41:29.670Z,25.40
2019-04-06T06:42:29.724Z,26.10
2019-04-06T06:43:29.778Z,24.80
2019-04-06T06:44:29.864Z,25.00
2019-04-06T06:45:29.928Z,25.60
2019-04-06T06:46:29.939Z,25.40
2019-04-06T06:47:29.994Z,24.70
2019-04-06T06:48:30.047Z,24.60
2019-04-06T06:49:30.103Z,24.00
2019-04-06T06:50:30.156Z,24.70
2019-04-06T06:51:30.211Z,24.60
2019-04-06T06:52:30.266Z,28.60
2019-04-06T06:53:30.319Z,23.70
2019-04-06T06:54:30.372Z,21.60
2019-04-06T06:55:30.427Z,24.80
2019-04-06T06:56:30.487Z,23.50
2019-04-06T06:57:30.699Z,28.90
2019-04-06T06:58:30.589Z,23.90
2019-04-06T06:59:30.644Z,22.50
2019-04-06T07:00:31.309Z,21.40
2019-04-06T07:01:30.752Z,22.10
2019-04-06T07:02:30.805Z,25.70
2019-04-06T07:03:30.862Z,23.70
2019-04-06T07:04:30.913Z,21.80
2019-04-06T07:05:30.967Z,23.90
2019-04-06T07:06:31.022Z,23.00
2019-04-06T07:07:31.076Z,26.50
2019-04-06T07:08:31.131Z,23.00
2019-04-06T07:09:31.187Z,20.80
2019-04-06T07:10:31.241Z,25.60
2019-04-06T07:11:31.294Z,23.20
2019-04-06T07:12:31.346Z,23.90
2019-04-06T07:13:31.404Z,25.00
2019-04-06T07:14:31.618Z,22.00
2019-04-06T07:15:31.564Z,22.50
2019-04-06T07:16:31.565Z,24.80
2019-04-06T07:17:31.618Z,24.90
2019-04-06T07:18:31.841Z,22.20
2019-04-06T07:19:31.727Z,24.80
2019-04-06T07:20:31.782Z,25.40
2019-04-06T07:21:31.836Z,23.80
2019-04-06T07:22:31.894Z,22.00
2019-04-06T07:23:31.945Z,21.20
2019-04-06T07:24:31.999Z,21.60
2019-04-06T07:25:32.054Z,23.10
2019-04-06T07:26:32.107Z,23.70
2019-04-06T07:27:32.162Z,23.90
2019-04-06T07:28:38.217Z,21.40
2019-04-06T07:29:32.281Z,22.80
2019-04-06T07:30:32.327Z,23.90
2019-04-06T07:31:32.380Z,21.60
2019-04-06T07:32:32.434Z,25.50
2019-04-06T07:33:32.489Z,23.20
2019-04-06T07:34:32.544Z,24.20
2019-04-06T07:35:32.606Z,24.50
2019-04-06T07:36:32.653Z,24.70
2019-04-06T07:37:32.707Z,23.90
2019-04-06T07:38:32.762Z,24.50
2019-04-06T07:39:32.819Z,23.90
2019-04-06T07:40:32.870Z,23.90
2019-04-06T07:41:32.925Z,27.00
2019-04-06T07:42:32.982Z,26.10
2019-04-06T07:43:33.035Z,26.20
2019-04-06T07:44:33.091Z,26.20
2019-04-06T07:45:33.146Z,24.80
2019-04-06T07:46:33.200Z,24.80
2019-04-06T07:47:33.255Z,25.30
2019-04-06T07:48:33.309Z,23.80
2019-04-06T07:49:34.037Z,25.40
2019-04-06T07:50:33.423Z,28.40
2019-04-06T07:51:33.620Z,25.60
2019-04-06T07:52:33.528Z,24.50
2019-04-06T07:53:33.784Z,25.20
2019-04-06T07:54:33.638Z,27.00
2019-04-06T07:55:33.694Z,27.70
2019-04-06T07:56:33.747Z,26.80
2019-04-06T07:57:33.801Z,23.80
2019-04-06T07:58:33.859Z,23.70
2019-04-06T07:59:33.912Z,27.20
2019-04-06T08:00:33.966Z,27.10
2019-04-06T08:01:34.023Z,26.90
2019-04-06T08:02:34.077Z,25.40
2019-04-06T08:03:34.134Z,23.90
2019-04-06T08:04:34.185Z,25.30
2019-04-06T08:05:34.480Z,25.30
2019-04-06T08:06:34.296Z,25.30
2019-04-06T08:07:34.436Z,28.60
2019-04-06T08:08:34.405Z,23.40
2019-04-06T08:09:34.460Z,29.40
2019-04-06T08:10:34.718Z,24.30
2019-04-06T08:11:34.571Z,28.00
2019-04-06T08:12:34.631Z,27.70
2019-04-06T08:13:35.113Z,25.40
2019-04-06T08:14:34.736Z,27.90
2019-04-06T08:15:34.790Z,26.40
2019-04-06T08:16:34.846Z,24.80
2019-04-06T08:17:35.082Z,28.30
2019-04-06T08:18:34.959Z,29.50
2019-04-06T08:19:35.012Z,29.70
2019-04-06T08:20:35.143Z,27.40
2019-04-06T08:21:35.123Z,27.50
2019-04-06T08:22:35.177Z,27.90
2019-04-06T08:23:35.353Z,26.40
2019-04-06T08:24:35.287Z,27.40
2019-04-06T08:25:35.343Z,26.70
2019-04-06T08:26:35.399Z,28.60
2019-04-06T08:27:36.087Z,22.90
2019-04-06T08:28:35.509Z,26.30
2019-04-06T08:29:35.786Z,27.60
2019-04-06T08:30:44.692Z,27.50
2019-04-06T08:31:35.677Z,26.00
2019-04-06T08:32:35.732Z,25.10
2019-04-06T08:33:35.787Z,25.90
2019-04-06T08:34:35.862Z,25.10
2019-04-06T08:35:35.900Z,25.90
2019-04-06T08:36:35.955Z,25.50
2019-04-06T08:37:36.010Z,27.70
2019-04-06T08:38:36.067Z,25.50
2019-04-06T08:39:36.123Z,27.30
2019-04-06T08:40:36.179Z,26.80
2019-04-06T08:41:36.511Z,26.90
2019-04-06T08:42:36.590Z,25.30
2019-04-06T08:43:36.533Z,27.70
2019-04-06T08:44:36.403Z,26.00
2019-04-06T08:45:36.459Z,26.10
2019-04-06T08:46:36.520Z,28.80
2019-04-06T08:47:36.571Z,28.40
2019-04-06T08:48:36.626Z,26.60
2019-04-06T08:49:36.683Z,26.70
2019-04-06T08:50:36.967Z,25.70
2019-04-06T08:51:36.796Z,25.70
2019-04-06T08:52:36.851Z,27.70
2019-04-06T08:53:36.908Z,23.90
2019-04-06T08:54:37.368Z,26.70
2019-04-06T08:55:37.025Z,26.60
2019-04-06T08:56:37.075Z,25.30
2019-04-06T08:57:37.137Z,27.10
2019-04-06T08:58:37.189Z,26.70
2019-04-06T08:59:37.248Z,24.80
2019-04-06T09:00:37.302Z,25.20
2019-04-06T09:01:37.419Z,26.40
2019-04-06T09:02:37.414Z,25.90
2019-04-06T09:03:37.471Z,23.40
2019-04-06T09:04:37.528Z,24.30
2019-04-06T09:05:37.585Z,25.30
2019-04-06T09:06:37.646Z,24.10
2019-04-06T09:07:37.888Z,26.10
2019-04-06T09:08:37.754Z,24.50
2019-04-06T09:09:37.813Z,28.50
2019-04-06T09:10:37.869Z,24.50
2019-04-06T09:11:37.927Z,25.40
2019-04-06T09:12:38.442Z,22.70
2019-04-06T09:13:40.360Z,21.10
2019-04-06T09:14:38.715Z,26.30
2019-04-06T09:15:38.175Z,24.40
2019-04-06T09:16:38.430Z,23.30
2019-04-06T09:17:38.270Z,27.90
2019-04-06T09:18:38.334Z,25.00
2019-04-06T09:19:38.386Z,24.20
2019-04-06T09:20:38.442Z,23.90
2019-04-06T09:21:38.562Z,22.90
2019-04-06T09:22:38.558Z,23.00
2019-04-06T09:23:38.615Z,23.70
2019-04-06T09:24:38.677Z,23.50
2019-04-06T09:25:38.731Z,24.30
2019-04-06T09:26:38.788Z,21.90
2019-04-06T09:27:38.847Z,22.40
2019-04-06T09:28:38.905Z,20.00
2019-04-06T09:29:38.962Z,24.80
2019-04-06T09:30:39.019Z,22.40
2019-04-06T09:31:39.079Z,22.80
2019-04-06T09:32:39.134Z,21.50
2019-04-06T09:33:39.194Z,23.50
2019-04-06T09:34:39.251Z,21.30
2019-04-06T09:35:39.309Z,21.70
2019-04-06T09:36:39.369Z,22.30
2019-04-06T09:37:39.423Z,22.20
2019-04-06T09:38:39.515Z,23.10
2019-04-06T09:39:39.540Z,23.00
2019-04-06T09:40:39.598Z,25.60
2019-04-06T09:41:39.657Z,24.30
2019-04-06T09:42:39.714Z,22.20
2019-04-06T09:43:39.849Z,21.80
2019-04-06T09:44:39.853Z,19.20
2019-04-06T09:45:41.436Z,17.80
2019-04-06T09:46:40.033Z,19.50
2019-04-06T09:47:40.105Z,20.60
2019-04-06T09:48:40.063Z,19.30
2019-04-06T09:49:40.280Z,19.40
2019-04-06T09:50:40.179Z,18.80
2019-04-06T09:51:40.241Z,20.80
2019-04-06T09:52:40.296Z,21.30
2019-04-06T09:53:40.354Z,23.00
2019-04-06T09:54:40.413Z,21.60
2019-04-06T09:55:40.781Z,21.20
2019-04-06T09:56:40.545Z,19.40
2019-04-06T09:57:40.586Z,23.80
2019-04-06T09:58:40.644Z,19.50
2019-04-06T09:59:40.704Z,18.80
2019-04-06T10:00:40.830Z,17.10
2019-04-06T10:01:40.820Z,18.90
2019-04-06T10:02:41.089Z,19.10
2019-04-06T10:03:40.941Z,21.20
2019-04-06T10:04:41.007Z,18.70
2019-04-06T10:05:41.058Z,20.10
2019-04-06T10:06:41.111Z,17.60
2019-04-06T10:07:41.169Z,17.40
2019-04-06T10:08:41.228Z,22.20
2019-04-06T10:09:41.294Z,18.80
2019-04-06T10:10:41.589Z,16.70
2019-04-06T10:11:41.435Z,15.30
2019-04-06T10:12:41.460Z,17.20
2019-04-06T10:13:41.518Z,15.30
2019-04-06T10:14:41.724Z,16.00
2019-04-06T10:15:41.641Z,14.70
2019-04-06T10:16:41.692Z,15.70
2019-04-06T10:17:41.757Z,16.60
2019-04-06T10:18:42.093Z,17.60
2019-04-06T10:19:41.869Z,17.60
2019-04-06T10:20:41.927Z,14.40
2019-04-06T10:21:42.000Z,14.70
2019-04-06T10:22:42.043Z,13.70
2019-04-06T10:23:42.101Z,16.40
2019-04-06T10:24:42.162Z,17.30
2019-04-06T10:25:42.220Z,14.00
2019-04-06T10:26:42.276Z,13.70
2019-04-06T10:27:42.336Z,14.40
2019-04-06T10:28:42.395Z,15.70
2019-04-06T10:29:48.877Z,14.90
2019-04-06T10:30:42.515Z,13.60
2019-04-06T10:31:42.569Z,14.30
2019-04-06T10:32:42.918Z,16.20
2019-04-06T10:33:42.890Z,15.20
2019-04-06T10:34:43.063Z,14.60
2019-04-06T10:35:43.113Z,14.00
2019-04-06T10:36:42.861Z,23.70
2019-04-06T10:37:42.920Z,14.70
2019-04-06T10:38:42.978Z,19.30
2019-04-06T10:39:43.037Z,19.70
2019-04-06T10:40:43.096Z,18.30
2019-04-06T10:41:43.295Z,16.70
2019-04-06T10:42:43.214Z,15.10
2019-04-06T10:43:43.271Z,16.50
2019-04-06T10:44:43.331Z,17.00
2019-04-06T10:45:43.389Z,17.60
2019-04-06T10:46:43.456Z,17.30
2019-04-06T10:47:43.508Z,17.60
2019-04-06T10:48:43.567Z,16.30
2019-04-06T10:49:43.652Z,14.00
2019-04-06T10:50:44.497Z,17.50
2019-04-06T10:51:43.749Z,15.40
2019-04-06T10:52:43.806Z,13.30
2019-04-06T10:53:43.915Z,16.40
2019-04-06T10:54:43.928Z,17.10
2019-04-06T10:55:43.989Z,14.90
2019-04-06T10:56:44.061Z,15.40
2019-04-06T10:57:44.113Z,14.30
2019-04-06T10:58:44.191Z,16.20
2019-04-06T10:59:44.242Z,14.30
2019-04-06T11:00:44.504Z,15.00
2019-04-06T11:01:44.358Z,14.30
2019-04-06T11:02:44.615Z,14.20
2019-04-06T11:03:44.501Z,13.80
2019-04-06T11:04:44.757Z,13.20
2019-04-06T11:05:44.608Z,12.50
2019-04-06T11:06:44.673Z,13.60
2019-04-06T11:07:45.080Z,14.20
2019-04-06T11:08:44.798Z,13.40
2019-04-06T11:09:44.863Z,13.90
2019-04-06T11:10:44.926Z,13.50
2019-04-06T11:11:44.989Z,15.80
2019-04-06T11:12:45.051Z,14.20
2019-04-06T11:13:45.130Z,14.70
2019-04-06T11:14:45.179Z,15.50
2019-04-06T11:15:45.284Z,14.30
2019-04-06T11:16:47.803Z,15.10
2019-04-06T11:17:45.370Z,14.20
2019-04-06T11:18:45.458Z,14.70
2019-04-06T11:19:45.544Z,15.20
2019-04-06T11:20:45.565Z,15.60
2019-04-06T11:21:45.784Z,15.40
2019-04-06T11:22:45.750Z,15.80
2019-04-06T11:23:45.759Z,14.70
2019-04-06T11:24:45.823Z,14.70
2019-04-06T11:25:45.882Z,15.50
2019-04-06T11:26:45.948Z,14.30
2019-04-06T11:27:46.013Z,17.60
2019-04-06T11:28:46.266Z,13.70
2019-04-06T11:29:46.139Z,14.10
2019-04-06T11:30:46.204Z,11.60
2019-04-06T11:31:46.269Z,14.10
2019-04-06T11:32:46.332Z,13.70
2019-04-06T11:33:46.398Z,15.80
2019-04-06T11:34:46.585Z,17.60
2019-04-06T11:35:46.526Z,16.40
2019-04-06T11:36:46.589Z,16.20
2019-04-06T11:37:46.655Z,15.10
2019-04-06T11:38:46.945Z,14.00
2019-04-06T11:39:47.036Z,15.20
2019-04-06T11:40:46.846Z,15.50
2019-04-06T11:41:46.969Z,18.60
2019-04-06T11:42:47.192Z,13.90
2019-04-06T11:43:47.207Z,13.80
2019-04-06T11:44:47.105Z,14.50
2019-04-06T11:45:47.388Z,16.50
2019-04-06T11:46:47.233Z,14.00
2019-04-06T11:47:47.298Z,13.50
2019-04-06T11:48:47.363Z,12.40
2019-04-06T11:49:47.663Z,15.70
2019-04-06T11:50:47.502Z,12.40
2019-04-06T11:51:47.557Z,13.50
2019-04-06T11:52:47.623Z,17.20
2019-04-06T11:53:47.694Z,12.10
2019-04-06T11:54:47.855Z,12.80
2019-04-06T11:55:47.817Z,13.60
2019-04-06T11:56:47.882Z,13.40
2019-04-06T11:57:47.947Z,13.70
2019-04-06T11:58:48.064Z,12.00
2019-04-06T11:59:48.078Z,14.90
2019-04-06T12:00:48.190Z,13.60
2019-04-06T12:01:48.249Z,13.90
2019-04-06T12:02:48.271Z,13.20
2019-04-06T12:03:48.335Z,16.10
2019-04-06T12:04:48.399Z,14.50
2019-04-06T12:05:48.463Z,15.30
2019-04-06T12:06:48.528Z,12.90
2019-04-06T12:07:48.785Z,13.30
2019-04-06T12:08:48.659Z,13.40
2019-04-06T12:09:48.723Z,14.60
2019-04-06T12:10:48.789Z,13.70
2019-04-06T12:11:48.855Z,15.40
2019-04-06T12:12:49.237Z,11.30
2019-04-06T12:13:48.985Z,14.00
2019-04-06T12:14:49.051Z,13.20
2019-04-06T12:15:49.116Z,12.70
2019-04-06T12:16:49.180Z,12.20
2019-04-06T12:17:49.245Z,15.70
2019-04-06T12:18:49.323Z,14.40
2019-04-06T12:19:49.692Z,14.20
2019-04-06T12:20:49.454Z,12.10
2019-04-06T12:21:49.614Z,13.90
2019-04-06T12:22:51.087Z,14.20
2019-04-06T12:23:49.639Z,12.50
2019-04-06T12:24:49.707Z,13.40
2019-04-06T12:25:49.769Z,12.20
2019-04-06T12:26:49.835Z,14.70
2019-04-06T12:27:49.901Z,12.10
2019-04-06T12:28:49.969Z,11.80
2019-04-06T12:29:50.032Z,12.80
2019-04-06T12:30:50.297Z,15.80
2019-04-06T12:31:50.200Z,11.50
2019-04-06T12:32:50.231Z,12.20
2019-04-06T12:33:50.296Z,12.80
2019-04-06T12:34:50.360Z,16.00
2019-04-06T12:35:50.427Z,14.40
2019-04-06T12:36:50.490Z,15.30
2019-04-06T12:37:50.558Z,14.10
2019-04-06T12:38:50.621Z,16.20
2019-04-06T12:39:53.703Z,12.80
2019-04-06T12:40:50.791Z,11.50
2019-04-06T12:41:50.819Z,14.00
2019-04-06T12:42:50.885Z,12.70
2019-04-06T12:43:50.947Z,13.10
2019-04-06T12:44:51.012Z,13.70
2019-04-06T12:45:51.076Z,15.00
2019-04-06T12:46:51.141Z,14.40
2019-04-06T12:47:51.569Z,14.70
2019-04-06T12:48:52.678Z,12.70
2019-04-06T12:49:51.465Z,13.60
2019-04-06T12:50:52.181Z,13.30
2019-04-06T12:51:52.179Z,14.30
2019-04-06T12:52:51.530Z,14.40